sensor_id;sensor_type;location;lat;lon;timestamp;P1;durP1;ratioP1;P2;durP2;ratioP2
33266;SDS011;19638;49.080;11.896;2023-06-14T00:00:44;7.03;;;3.75;;
33266;SDS011;19638;49.080;11.896;2023-06-14T00:04:47;4.82;;;3.95;;
33266;SDS011;19638;49.080;11.896;2023-06-14T00:08:52;4.82;;;3.33;;
33266;SDS011;19638;49.080;11.896;2023-06-14T00:12:56;6.07;;;3.90;;
33266;SDS011;19638;49.080;11.896;2023-06-14T00:17:04;10.05;;;3.47;;
33266;SDS011;19638;49.080;11.896;2023-06-14T00:21:11;7.28;;;3.63;;
33266;SDS011;19638;49.080;11.896;2023-06-14T00:25:19;6.25;;;3.67;;
33266;SDS011;19638;49.080;11.896;2023-06-14T00:29:30;4.97;;;3.30;;
33266;SDS011;19638;49.080;11.896;2023-06-14T00:33:34;5.22;;;3.75;;
33266;SDS011;19638;49.080;11.896;2023-06-14T00:37:38;6.43;;;3.58;;
33266;SDS011;19638;49.080;11.896;2023-06-14T00:41:42;7.07;;;3.83;;
33266;SDS011;19638;49.080;11.896;2023-06-14T00:45:48;8.57;;;3.88;;
33266;SDS011;19638;49.080;11.896;2023-06-14T00:49:54;9.27;;;3.97;;
33266;SDS011;19638;49.080;11.896;2023-06-14T00:54:02;6.38;;;3.83;;
33266;SDS011;19638;49.080;11.896;2023-06-14T00:58:06;8.82;;;3.92;;
33266;SDS011;19638;49.080;11.896;2023-06-14T01:02:15;4.63;;;3.50;;
33266;SDS011;19638;49.080;11.896;2023-06-14T01:06:23;5.60;;;4.00;;
33266;SDS011;19638;49.080;11.896;2023-06-14T01:10:35;5.20;;;3.72;;
33266;SDS011;19638;49.080;11.896;2023-06-14T01:14:43;3.88;;;3.40;;
33266;SDS011;19638;49.080;11.896;2023-06-14T01:18:48;6.43;;;3.83;;
33266;SDS011;19638;49.080;11.896;2023-06-14T01:22:56;7.13;;;4.32;;
33266;SDS011;19638;49.080;11.896;2023-06-14T01:26:59;5.97;;;4.35;;
33266;SDS011;19638;49.080;11.896;2023-06-14T01:31:03;4.38;;;3.50;;
33266;SDS011;19638;49.080;11.896;2023-06-14T01:35:10;6.47;;;3.63;;
33266;SDS011;19638;49.080;11.896;2023-06-14T01:39:15;4.22;;;3.70;;
33266;SDS011;19638;49.080;11.896;2023-06-14T01:43:20;4.80;;;3.65;;
33266;SDS011;19638;49.080;11.896;2023-06-14T01:47:23;5.47;;;3.83;;
33266;SDS011;19638;49.080;11.896;2023-06-14T01:51:27;5.65;;;3.80;;
33266;SDS011;19638;49.080;11.896;2023-06-14T01:55:32;5.65;;;3.88;;
33266;SDS011;19638;49.080;11.896;2023-06-14T01:59:39;6.75;;;3.90;;
33266;SDS011;19638;49.080;11.896;2023-06-14T02:03:45;12.88;;;4.32;;
33266;SDS011;19638;49.080;11.896;2023-06-14T02:07:49;13.65;;;4.18;;
33266;SDS011;19638;49.080;11.896;2023-06-14T02:11:56;7.43;;;3.97;;
33266;SDS011;19638;49.080;11.896;2023-06-14T02:15:59;9.55;;;3.85;;
33266;SDS011;19638;49.080;11.896;2023-06-14T02:20:06;5.25;;;3.80;;
33266;SDS011;19638;49.080;11.896;2023-06-14T02:24:12;10.40;;;4.00;;
33266;SDS011;19638;49.080;11.896;2023-06-14T02:28:18;5.90;;;4.15;;
33266;SDS011;19638;49.080;11.896;2023-06-14T02:32:21;8.05;;;4.22;;
33266;SDS011;19638;49.080;11.896;2023-06-14T02:36:26;4.85;;;4.05;;
33266;SDS011;19638;49.080;11.896;2023-06-14T02:40:30;5.85;;;3.95;;
33266;SDS011;19638;49.080;11.896;2023-06-14T02:44:35;4.22;;;3.83;;
33266;SDS011;19638;49.080;11.896;2023-06-14T02:48:38;10.85;;;4.53;;
33266;SDS011;19638;49.080;11.896;2023-06-14T02:52:45;5.68;;;4.35;;
33266;SDS011;19638;49.080;11.896;2023-06-14T02:56:50;5.28;;;3.75;;
33266;SDS011;19638;49.080;11.896;2023-06-14T03:05:40;8.85;;;3.95;;
33266;SDS011;19638;49.080;11.896;2023-06-14T03:09:53;7.32;;;4.05;;
33266;SDS011;19638;49.080;11.896;2023-06-14T03:14:09;9.27;;;4.57;;
33266;SDS011;19638;49.080;11.896;2023-06-14T03:22:43;5.00;;;4.20;;
33266;SDS011;19638;49.080;11.896;2023-06-14T03:26:50;6.15;;;4.43;;
33266;SDS011;19638;49.080;11.896;2023-06-14T03:30:56;6.03;;;4.80;;
33266;SDS011;19638;49.080;11.896;2023-06-14T03:35:13;4.70;;;4.18;;
33266;SDS011;19638;49.080;11.896;2023-06-14T03:39:31;6.65;;;4.35;;
33266;SDS011;19638;49.080;11.896;2023-06-14T03:43:36;8.23;;;4.22;;
33266;SDS011;19638;49.080;11.896;2023-06-14T03:47:40;3.97;;;3.55;;
33266;SDS011;19638;49.080;11.896;2023-06-14T03:52:02;4.82;;;3.97;;
33266;SDS011;19638;49.080;11.896;2023-06-14T03:56:10;7.18;;;3.95;;
33266;SDS011;19638;49.080;11.896;2023-06-14T04:00:21;5.10;;;4.47;;
33266;SDS011;19638;49.080;11.896;2023-06-14T04:04:27;4.88;;;4.38;;
33266;SDS011;19638;49.080;11.896;2023-06-14T04:08:35;10.98;;;4.75;;
33266;SDS011;19638;49.080;11.896;2023-06-14T04:12:44;8.35;;;4.18;;
33266;SDS011;19638;49.080;11.896;2023-06-14T04:16:52;6.25;;;4.40;;
33266;SDS011;19638;49.080;11.896;2023-06-14T04:21:21;9.52;;;4.78;;
33266;SDS011;19638;49.080;11.896;2023-06-14T04:25:34;5.95;;;4.53;;
33266;SDS011;19638;49.080;11.896;2023-06-14T04:29:41;5.80;;;4.85;;
33266;SDS011;19638;49.080;11.896;2023-06-14T04:33:53;7.57;;;4.57;;
33266;SDS011;19638;49.080;11.896;2023-06-14T04:37:58;8.70;;;4.97;;
33266;SDS011;19638;49.080;11.896;2023-06-14T04:42:12;8.20;;;4.35;;
33266;SDS011;19638;49.080;11.896;2023-06-14T04:46:20;9.57;;;4.43;;
33266;SDS011;19638;49.080;11.896;2023-06-14T04:50:28;5.38;;;4.45;;
33266;SDS011;19638;49.080;11.896;2023-06-14T04:54:35;6.15;;;4.22;;
33266;SDS011;19638;49.080;11.896;2023-06-14T04:59:00;8.95;;;4.57;;
33266;SDS011;19638;49.080;11.896;2023-06-14T05:03:20;7.95;;;4.65;;
33266;SDS011;19638;49.080;11.896;2023-06-14T05:07:26;9.32;;;4.82;;
33266;SDS011;19638;49.080;11.896;2023-06-14T05:11:34;11.00;;;5.18;;
33266;SDS011;19638;49.080;11.896;2023-06-14T05:15:39;8.50;;;4.60;;
33266;SDS011;19638;49.080;11.896;2023-06-14T05:19:54;5.22;;;4.25;;
33266;SDS011;19638;49.080;11.896;2023-06-14T05:24:00;6.38;;;4.53;;
33266;SDS011;19638;49.080;11.896;2023-06-14T05:28:05;7.82;;;5.03;;
33266;SDS011;19638;49.080;11.896;2023-06-14T05:32:15;5.68;;;4.82;;
33266;SDS011;19638;49.080;11.896;2023-06-14T05:36:37;9.45;;;5.10;;
33266;SDS011;19638;49.080;11.896;2023-06-14T05:40:43;8.05;;;4.70;;
33266;SDS011;19638;49.080;11.896;2023-06-14T05:44:54;5.80;;;4.80;;
33266;SDS011;19638;49.080;11.896;2023-06-14T05:49:04;6.93;;;4.85;;
33266;SDS011;19638;49.080;11.896;2023-06-14T05:53:13;7.05;;;4.80;;
33266;SDS011;19638;49.080;11.896;2023-06-14T05:57:30;7.10;;;4.50;;
33266;SDS011;19638;49.080;11.896;2023-06-14T06:01:39;11.00;;;4.53;;
33266;SDS011;19638;49.080;11.896;2023-06-14T06:05:51;7.50;;;4.53;;
33266;SDS011;19638;49.080;11.896;2023-06-14T06:10:04;5.88;;;4.55;;
33266;SDS011;19638;49.080;11.896;2023-06-14T06:14:12;8.23;;;5.00;;
33266;SDS011;19638;49.080;11.896;2023-06-14T06:18:19;21.33;;;5.28;;
33266;SDS011;19638;49.080;11.896;2023-06-14T06:22:34;8.63;;;5.07;;
33266;SDS011;19638;49.080;11.896;2023-06-14T06:26:44;8.20;;;4.93;;
33266;SDS011;19638;49.080;11.896;2023-06-14T06:30:55;11.35;;;5.03;;
33266;SDS011;19638;49.080;11.896;2023-06-14T06:35:01;8.57;;;4.53;;
33266;SDS011;19638;49.080;11.896;2023-06-14T06:39:11;6.15;;;4.43;;
33266;SDS011;19638;49.080;11.896;2023-06-14T06:43:26;11.20;;;5.10;;
33266;SDS011;19638;49.080;11.896;2023-06-14T06:47:31;6.82;;;4.60;;
33266;SDS011;19638;49.080;11.896;2023-06-14T06:52:00;6.55;;;4.70;;
33266;SDS011;19638;49.080;11.896;2023-06-14T07:00:35;16.65;;;4.70;;
33266;SDS011;19638;49.080;11.896;2023-06-14T07:04:51;7.53;;;4.40;;
33266;SDS011;19638;49.080;11.896;2023-06-14T07:09:25;11.07;;;4.57;;
33266;SDS011;19638;49.080;11.896;2023-06-14T07:13:43;12.48;;;4.97;;
33266;SDS011;19638;49.080;11.896;2023-06-14T07:18:09;4.63;;;4.20;;
33266;SDS011;19638;49.080;11.896;2023-06-14T07:22:38;5.97;;;4.53;;
33266;SDS011;19638;49.080;11.896;2023-06-14T07:27:03;6.60;;;4.70;;
33266;SDS011;19638;49.080;11.896;2023-06-14T07:31:36;8.05;;;4.88;;
33266;SDS011;19638;49.080;11.896;2023-06-14T07:35:43;8.32;;;4.50;;
33266;SDS011;19638;49.080;11.896;2023-06-14T07:39:53;7.45;;;4.65;;
33266;SDS011;19638;49.080;11.896;2023-06-14T07:44:13;7.93;;;4.18;;
33266;SDS011;19638;49.080;11.896;2023-06-14T07:53:42;5.55;;;4.53;;
33266;SDS011;19638;49.080;11.896;2023-06-14T07:57:54;7.05;;;4.72;;
33266;SDS011;19638;49.080;11.896;2023-06-14T08:02:14;4.63;;;4.22;;
33266;SDS011;19638;49.080;11.896;2023-06-14T08:06:51;7.10;;;3.92;;
33266;SDS011;19638;49.080;11.896;2023-06-14T08:11:12;6.35;;;4.00;;
33266;SDS011;19638;49.080;11.896;2023-06-14T08:15:17;17.23;;;4.65;;
33266;SDS011;19638;49.080;11.896;2023-06-14T08:19:29;5.20;;;3.60;;
33266;SDS011;19638;49.080;11.896;2023-06-14T08:23:54;10.85;;;4.10;;
33266;SDS011;19638;49.080;11.896;2023-06-14T08:43:17;6.45;;;3.53;;
33266;SDS011;19638;49.080;11.896;2023-06-14T08:47:29;8.30;;;3.58;;
33266;SDS011;19638;49.080;11.896;2023-06-14T08:52:13;4.57;;;3.90;;
33266;SDS011;19638;49.080;11.896;2023-06-14T09:01:27;7.30;;;3.88;;
33266;SDS011;19638;49.080;11.896;2023-06-14T09:05:55;4.95;;;3.92;;
33266;SDS011;19638;49.080;11.896;2023-06-14T09:10:07;5.30;;;3.78;;
33266;SDS011;19638;49.080;11.896;2023-06-14T09:14:43;4.82;;;3.40;;
33266;SDS011;19638;49.080;11.896;2023-06-14T09:18:59;4.05;;;3.40;;
33266;SDS011;19638;49.080;11.896;2023-06-14T09:23:20;3.90;;;3.45;;
33266;SDS011;19638;49.080;11.896;2023-06-14T09:27:31;3.83;;;3.40;;
33266;SDS011;19638;49.080;11.896;2023-06-14T09:41:56;7.15;;;3.50;;
33266;SDS011;19638;49.080;11.896;2023-06-14T09:46:17;5.30;;;3.10;;
33266;SDS011;19638;49.080;11.896;2023-06-14T09:50:55;5.18;;;3.40;;
33266;SDS011;19638;49.080;11.896;2023-06-14T09:55:34;3.97;;;3.33;;
33266;SDS011;19638;49.080;11.896;2023-06-14T10:15:28;5.55;;;3.40;;
33266;SDS011;19638;49.080;11.896;2023-06-14T10:20:02;7.45;;;4.00;;
33266;SDS011;19638;49.080;11.896;2023-06-14T10:24:33;5.63;;;3.92;;
33266;SDS011;19638;49.080;11.896;2023-06-14T10:28:55;5.75;;;3.47;;
33266;SDS011;19638;49.080;11.896;2023-06-14T10:38:09;7.28;;;3.58;;
33266;SDS011;19638;49.080;11.896;2023-06-14T10:42:35;5.07;;;3.92;;
33266;SDS011;19638;49.080;11.896;2023-06-14T10:46:45;8.13;;;3.30;;
33266;SDS011;19638;49.080;11.896;2023-06-14T10:51:01;4.07;;;3.65;;
33266;SDS011;19638;49.080;11.896;2023-06-14T10:55:24;6.15;;;3.78;;
33266;SDS011;19638;49.080;11.896;2023-06-14T10:59:45;6.75;;;3.92;;
33266;SDS011;19638;49.080;11.896;2023-06-14T11:03:54;4.35;;;3.80;;
33266;SDS011;19638;49.080;11.896;2023-06-14T11:13:50;3.97;;;3.55;;
33266;SDS011;19638;49.080;11.896;2023-06-14T11:18:09;6.78;;;3.83;;
33266;SDS011;19638;49.080;11.896;2023-06-14T11:22:40;6.25;;;3.55;;
33266;SDS011;19638;49.080;11.896;2023-06-14T11:27:04;5.13;;;3.88;;
33266;SDS011;19638;49.080;11.896;2023-06-14T11:31:42;4.93;;;3.60;;
33266;SDS011;19638;49.080;11.896;2023-06-14T11:36:09;3.92;;;3.33;;
33266;SDS011;19638;49.080;11.896;2023-06-14T11:40:37;8.98;;;3.85;;
33266;SDS011;19638;49.080;11.896;2023-06-14T11:44:55;6.53;;;3.80;;
33266;SDS011;19638;49.080;11.896;2023-06-14T11:49:36;6.22;;;4.35;;
33266;SDS011;19638;49.080;11.896;2023-06-14T11:53:51;5.13;;;3.83;;
33266;SDS011;19638;49.080;11.896;2023-06-14T11:58:12;15.52;;;4.13;;
33266;SDS011;19638;49.080;11.896;2023-06-14T12:02:23;6.95;;;4.05;;
33266;SDS011;19638;49.080;11.896;2023-06-14T12:06:46;4.35;;;3.30;;
33266;SDS011;19638;49.080;11.896;2023-06-14T12:10:56;5.38;;;3.90;;
33266;SDS011;19638;49.080;11.896;2023-06-14T12:15:14;8.02;;;3.60;;
33266;SDS011;19638;49.080;11.896;2023-06-14T12:19:43;10.27;;;4.38;;
33266;SDS011;19638;49.080;11.896;2023-06-14T12:24:12;5.30;;;4.05;;
33266;SDS011;19638;49.080;11.896;2023-06-14T12:28:43;5.25;;;3.50;;
33266;SDS011;19638;49.080;11.896;2023-06-14T12:33:05;3.88;;;3.47;;
33266;SDS011;19638;49.080;11.896;2023-06-14T12:37:25;4.28;;;3.60;;
33266;SDS011;19638;49.080;11.896;2023-06-14T12:46:51;4.80;;;3.58;;
33266;SDS011;19638;49.080;11.896;2023-06-14T12:51:24;3.85;;;3.40;;
33266;SDS011;19638;49.080;11.896;2023-06-14T12:55:43;6.05;;;3.35;;
33266;SDS011;19638;49.080;11.896;2023-06-14T13:05:27;5.40;;;3.45;;
33266;SDS011;19638;49.080;11.896;2023-06-14T13:09:46;9.98;;;3.35;;
33266;SDS011;19638;49.080;11.896;2023-06-14T13:13:55;9.18;;;3.65;;
33266;SDS011;19638;49.080;11.896;2023-06-14T13:18:30;5.78;;;3.50;;
33266;SDS011;19638;49.080;11.896;2023-06-14T13:22:55;4.65;;;3.30;;
33266;SDS011;19638;49.080;11.896;2023-06-14T13:27:16;3.38;;;3.15;;
33266;SDS011;19638;49.080;11.896;2023-06-14T13:31:50;4.40;;;3.08;;
33266;SDS011;19638;49.080;11.896;2023-06-14T13:36:57;4.82;;;3.30;;
33266;SDS011;19638;49.080;11.896;2023-06-14T13:42:06;3.50;;;3.20;;
33266;SDS011;19638;49.080;11.896;2023-06-14T13:46:12;4.68;;;3.50;;
33266;SDS011;19638;49.080;11.896;2023-06-14T13:50:15;4.40;;;3.30;;
33266;SDS011;19638;49.080;11.896;2023-06-14T13:54:19;3.72;;;3.28;;
33266;SDS011;19638;49.080;11.896;2023-06-14T13:58:25;4.10;;;3.00;;
33266;SDS011;19638;49.080;11.896;2023-06-14T14:02:28;4.63;;;3.38;;
33266;SDS011;19638;49.080;11.896;2023-06-14T14:06:33;5.32;;;3.35;;
33266;SDS011;19638;49.080;11.896;2023-06-14T14:10:39;4.20;;;3.60;;
33266;SDS011;19638;49.080;11.896;2023-06-14T14:14:44;6.85;;;3.70;;
33266;SDS011;19638;49.080;11.896;2023-06-14T14:18:47;5.30;;;3.42;;
33266;SDS011;19638;49.080;11.896;2023-06-14T14:22:50;4.55;;;3.58;;
33266;SDS011;19638;49.080;11.896;2023-06-14T14:26:54;5.68;;;3.45;;
33266;SDS011;19638;49.080;11.896;2023-06-14T14:31:02;5.20;;;3.20;;
33266;SDS011;19638;49.080;11.896;2023-06-14T14:35:06;3.53;;;3.22;;
33266;SDS011;19638;49.080;11.896;2023-06-14T14:39:12;4.22;;;3.30;;
33266;SDS011;19638;49.080;11.896;2023-06-14T14:43:16;4.55;;;3.20;;
33266;SDS011;19638;49.080;11.896;2023-06-14T14:47:20;4.93;;;3.53;;
33266;SDS011;19638;49.080;11.896;2023-06-14T14:51:23;3.92;;;3.50;;
33266;SDS011;19638;49.080;11.896;2023-06-14T14:55:27;5.63;;;3.28;;
33266;SDS011;19638;49.080;11.896;2023-06-14T14:59:32;3.88;;;3.40;;
33266;SDS011;19638;49.080;11.896;2023-06-14T15:03:38;7.90;;;3.30;;
33266;SDS011;19638;49.080;11.896;2023-06-14T15:07:59;9.65;;;3.53;;
33266;SDS011;19638;49.080;11.896;2023-06-14T15:12:04;3.75;;;3.35;;
33266;SDS011;19638;49.080;11.896;2023-06-14T15:16:08;10.73;;;3.67;;
33266;SDS011;19638;49.080;11.896;2023-06-14T15:20:13;3.70;;;3.40;;
33266;SDS011;19638;49.080;11.896;2023-06-14T15:24:17;8.80;;;3.45;;
33266;SDS011;19638;49.080;11.896;2023-06-14T15:28:38;3.90;;;3.47;;
33266;SDS011;19638;49.080;11.896;2023-06-14T15:32:46;10.80;;;3.58;;
33266;SDS011;19638;49.080;11.896;2023-06-14T15:36:55;4.57;;;3.30;;
33266;SDS011;19638;49.080;11.896;2023-06-14T15:40:58;3.72;;;2.97;;
33266;SDS011;19638;49.080;11.896;2023-06-14T15:45:01;4.65;;;3.33;;
33266;SDS011;19638;49.080;11.896;2023-06-14T15:49:13;6.03;;;3.47;;
33266;SDS011;19638;49.080;11.896;2023-06-14T15:53:18;3.60;;;3.30;;
33266;SDS011;19638;49.080;11.896;2023-06-14T15:57:21;7.20;;;3.25;;
33266;SDS011;19638;49.080;11.896;2023-06-14T16:01:25;3.22;;;2.97;;
33266;SDS011;19638;49.080;11.896;2023-06-14T16:05:31;8.00;;;3.70;;
33266;SDS011;19638;49.080;11.896;2023-06-14T16:09:36;5.78;;;3.75;;
33266;SDS011;19638;49.080;11.896;2023-06-14T16:13:41;4.07;;;3.38;;
33266;SDS011;19638;49.080;11.896;2023-06-14T16:17:46;5.47;;;3.45;;
33266;SDS011;19638;49.080;11.896;2023-06-14T16:21:50;5.47;;;3.90;;
33266;SDS011;19638;49.080;11.896;2023-06-14T16:26:00;5.15;;;3.00;;
33266;SDS011;19638;49.080;11.896;2023-06-14T16:30:10;3.95;;;3.60;;
33266;SDS011;19638;49.080;11.896;2023-06-14T16:34:14;6.43;;;3.40;;
33266;SDS011;19638;49.080;11.896;2023-06-14T16:38:17;6.10;;;3.35;;
33266;SDS011;19638;49.080;11.896;2023-06-14T16:42:24;4.78;;;3.50;;
33266;SDS011;19638;49.080;11.896;2023-06-14T16:46:31;6.07;;;3.65;;
33266;SDS011;19638;49.080;11.896;2023-06-14T16:50:35;4.10;;;3.42;;
33266;SDS011;19638;49.080;11.896;2023-06-14T16:54:45;5.22;;;2.97;;
33266;SDS011;19638;49.080;11.896;2023-06-14T16:58:50;3.00;;;2.67;;
33266;SDS011;19638;49.080;11.896;2023-06-14T17:02:53;6.88;;;3.20;;
33266;SDS011;19638;49.080;11.896;2023-06-14T17:06:56;6.50;;;3.00;;
33266;SDS011;19638;49.080;11.896;2023-06-14T17:10:59;3.45;;;3.15;;
33266;SDS011;19638;49.080;11.896;2023-06-14T17:15:05;3.20;;;2.55;;
33266;SDS011;19638;49.080;11.896;2023-06-14T17:19:09;3.30;;;2.72;;
33266;SDS011;19638;49.080;11.896;2023-06-14T17:23:15;4.00;;;2.83;;
33266;SDS011;19638;49.080;11.896;2023-06-14T17:27:19;2.95;;;2.75;;
33266;SDS011;19638;49.080;11.896;2023-06-14T17:31:24;4.47;;;2.88;;
33266;SDS011;19638;49.080;11.896;2023-06-14T17:35:29;4.25;;;3.10;;
33266;SDS011;19638;49.080;11.896;2023-06-14T17:39:35;3.80;;;3.30;;
33266;SDS011;19638;49.080;11.896;2023-06-14T17:43:42;3.25;;;2.97;;
33266;SDS011;19638;49.080;11.896;2023-06-14T17:47:47;3.00;;;2.80;;
33266;SDS011;19638;49.080;11.896;2023-06-14T17:51:53;4.97;;;3.15;;
33266;SDS011;19638;49.080;11.896;2023-06-14T17:55:56;7.60;;;3.40;;
33266;SDS011;19638;49.080;11.896;2023-06-14T18:00:03;2.90;;;2.70;;
33266;SDS011;19638;49.080;11.896;2023-06-14T18:04:10;3.20;;;2.92;;
33266;SDS011;19638;49.080;11.896;2023-06-14T18:08:13;4.30;;;2.95;;
33266;SDS011;19638;49.080;11.896;2023-06-14T18:12:17;4.22;;;3.00;;
33266;SDS011;19638;49.080;11.896;2023-06-14T18:16:21;3.50;;;3.20;;
33266;SDS011;19638;49.080;11.896;2023-06-14T18:20:31;5.78;;;3.08;;
33266;SDS011;19638;49.080;11.896;2023-06-14T18:24:35;8.00;;;3.00;;
33266;SDS011;19638;49.080;11.896;2023-06-14T18:28:42;5.72;;;3.10;;
33266;SDS011;19638;49.080;11.896;2023-06-14T18:32:45;3.55;;;2.90;;
33266;SDS011;19638;49.080;11.896;2023-06-14T18:36:50;4.57;;;3.15;;
33266;SDS011;19638;49.080;11.896;2023-06-14T18:40:55;3.42;;;3.10;;
33266;SDS011;19638;49.080;11.896;2023-06-14T18:44:58;6.50;;;3.00;;
33266;SDS011;19638;49.080;11.896;2023-06-14T18:49:06;3.38;;;2.50;;
33266;SDS011;19638;49.080;11.896;2023-06-14T18:53:11;4.22;;;3.05;;
33266;SDS011;19638;49.080;11.896;2023-06-14T18:57:16;3.33;;;2.85;;
33266;SDS011;19638;49.080;11.896;2023-06-14T19:01:22;3.40;;;3.13;;
33266;SDS011;19638;49.080;11.896;2023-06-14T19:05:26;6.15;;;3.33;;
33266;SDS011;19638;49.080;11.896;2023-06-14T19:09:36;3.42;;;3.13;;
33266;SDS011;19638;49.080;11.896;2023-06-14T19:13:40;3.65;;;2.92;;
33266;SDS011;19638;49.080;11.896;2023-06-14T19:17:53;3.90;;;3.17;;
33266;SDS011;19638;49.080;11.896;2023-06-14T19:21:57;4.80;;;3.03;;
33266;SDS011;19638;49.080;11.896;2023-06-14T19:26:04;5.50;;;2.65;;
33266;SDS011;19638;49.080;11.896;2023-06-14T19:30:08;8.00;;;3.03;;
33266;SDS011;19638;49.080;11.896;2023-06-14T19:34:11;5.00;;;3.63;;
33266;SDS011;19638;49.080;11.896;2023-06-14T19:38:14;6.65;;;3.40;;
33266;SDS011;19638;49.080;11.896;2023-06-14T19:42:21;4.05;;;3.42;;
33266;SDS011;19638;49.080;11.896;2023-06-14T19:46:24;3.97;;;3.60;;
33266;SDS011;19638;49.080;11.896;2023-06-14T19:50:28;5.10;;;3.45;;
33266;SDS011;19638;49.080;11.896;2023-06-14T19:54:33;3.53;;;3.20;;
33266;SDS011;19638;49.080;11.896;2023-06-14T19:58:40;5.30;;;3.60;;
33266;SDS011;19638;49.080;11.896;2023-06-14T20:02:46;4.93;;;3.22;;
33266;SDS011;19638;49.080;11.896;2023-06-14T20:06:51;3.58;;;3.25;;
33266;SDS011;19638;49.080;11.896;2023-06-14T20:10:59;4.32;;;3.92;;
33266;SDS011;19638;49.080;11.896;2023-06-14T20:15:08;5.93;;;3.83;;
33266;SDS011;19638;49.080;11.896;2023-06-14T20:19:11;6.03;;;3.67;;
33266;SDS011;19638;49.080;11.896;2023-06-14T20:23:16;3.92;;;3.10;;
33266;SDS011;19638;49.080;11.896;2023-06-14T20:27:19;5.88;;;3.63;;
33266;SDS011;19638;49.080;11.896;2023-06-14T20:31:25;4.13;;;3.60;;
33266;SDS011;19638;49.080;11.896;2023-06-14T20:35:28;7.53;;;3.45;;
33266;SDS011;19638;49.080;11.896;2023-06-14T20:39:32;5.07;;;3.50;;
33266;SDS011;19638;49.080;11.896;2023-06-14T20:43:37;6.80;;;3.80;;
33266;SDS011;19638;49.080;11.896;2023-06-14T20:47:41;4.55;;;3.60;;
33266;SDS011;19638;49.080;11.896;2023-06-14T20:51:48;6.30;;;3.30;;
33266;SDS011;19638;49.080;11.896;2023-06-14T20:55:57;6.38;;;3.70;;
33266;SDS011;19638;49.080;11.896;2023-06-14T21:00:03;7.97;;;4.10;;
33266;SDS011;19638;49.080;11.896;2023-06-14T21:04:16;5.03;;;3.75;;
33266;SDS011;19638;49.080;11.896;2023-06-14T21:08:20;5.65;;;3.60;;
33266;SDS011;19638;49.080;11.896;2023-06-14T21:12:27;4.50;;;3.83;;
33266;SDS011;19638;49.080;11.896;2023-06-14T21:16:30;5.40;;;3.50;;
33266;SDS011;19638;49.080;11.896;2023-06-14T21:20:35;3.88;;;3.47;;
33266;SDS011;19638;49.080;11.896;2023-06-14T21:24:39;5.65;;;3.65;;
33266;SDS011;19638;49.080;11.896;2023-06-14T21:28:42;4.10;;;3.67;;
33266;SDS011;19638;49.080;11.896;2023-06-14T21:32:46;6.28;;;3.72;;
33266;SDS011;19638;49.080;11.896;2023-06-14T21:36:52;3.60;;;3.30;;
33266;SDS011;19638;49.080;11.896;2023-06-14T21:40:57;4.07;;;3.72;;
33266;SDS011;19638;49.080;11.896;2023-06-14T21:45:00;4.65;;;4.03;;
33266;SDS011;19638;49.080;11.896;2023-06-14T21:49:10;4.80;;;4.07;;
33266;SDS011;19638;49.080;11.896;2023-06-14T21:53:15;5.13;;;3.80;;
33266;SDS011;19638;49.080;11.896;2023-06-14T21:57:18;4.65;;;3.97;;
33266;SDS011;19638;49.080;11.896;2023-06-14T22:01:21;5.63;;;4.05;;
33266;SDS011;19638;49.080;11.896;2023-06-14T22:05:26;7.85;;;4.82;;
33266;SDS011;19638;49.080;11.896;2023-06-14T22:09:33;7.53;;;3.97;;
33266;SDS011;19638;49.080;11.896;2023-06-14T22:13:37;5.68;;;4.10;;
33266;SDS011;19638;49.080;11.896;2023-06-14T22:17:40;5.65;;;4.18;;
33266;SDS011;19638;49.080;11.896;2023-06-14T22:21:43;5.28;;;4.07;;
33266;SDS011;19638;49.080;11.896;2023-06-14T22:25:54;4.80;;;4.00;;
33266;SDS011;19638;49.080;11.896;2023-06-14T22:30:01;6.45;;;4.45;;
33266;SDS011;19638;49.080;11.896;2023-06-14T22:34:07;6.07;;;5.07;;
33266;SDS011;19638;49.080;11.896;2023-06-14T22:38:12;7.05;;;4.72;;
33266;SDS011;19638;49.080;11.896;2023-06-14T22:42:25;4.72;;;4.32;;
33266;SDS011;19638;49.080;11.896;2023-06-14T22:46:32;4.90;;;4.40;;
33266;SDS011;19638;49.080;11.896;2023-06-14T22:50:36;5.93;;;4.18;;
33266;SDS011;19638;49.080;11.896;2023-06-14T22:54:39;12.07;;;5.22;;
33266;SDS011;19638;49.080;11.896;2023-06-14T22:58:47;6.65;;;4.65;;
33266;SDS011;19638;49.080;11.896;2023-06-14T23:02:50;6.38;;;4.28;;
33266;SDS011;19638;49.080;11.896;2023-06-14T23:06:53;8.20;;;4.80;;
33266;SDS011;19638;49.080;11.896;2023-06-14T23:10:57;5.53;;;4.85;;
33266;SDS011;19638;49.080;11.896;2023-06-14T23:15:05;6.20;;;5.00;;
33266;SDS011;19638;49.080;11.896;2023-06-14T23:19:10;9.73;;;5.63;;
33266;SDS011;19638;49.080;11.896;2023-06-14T23:23:18;6.70;;;4.88;;
33266;SDS011;19638;49.080;11.896;2023-06-14T23:27:24;6.68;;;5.20;;
33266;SDS011;19638;49.080;11.896;2023-06-14T23:31:31;6.47;;;5.13;;
33266;SDS011;19638;49.080;11.896;2023-06-14T23:35:37;7.15;;;5.15;;
33266;SDS011;19638;49.080;11.896;2023-06-14T23:39:42;7.78;;;5.90;;
33266;SDS011;19638;49.080;11.896;2023-06-14T23:43:50;7.18;;;5.47;;
33266;SDS011;19638;49.080;11.896;2023-06-14T23:47:54;9.95;;;5.85;;
33266;SDS011;19638;49.080;11.896;2023-06-14T23:51:59;12.00;;;6.18;;
33266;SDS011;19638;49.080;11.896;2023-06-14T23:56:11;9.07;;;5.95;;
